sensor_id;sensor_type;location;lat;lon;timestamp;P1;durP1;ratioP1;P2;durP2;ratioP2
5195;SDS011;2617;51.006;12.436;2024-03-02T00:00:55;30.15;;;16.20;;
5195;SDS011;2617;51.006;12.436;2024-03-02T00:05:57;27.07;;;14.80;;
5195;SDS011;2617;51.006;12.436;2024-03-02T00:11:00;29.03;;;16.40;;
5195;SDS011;2617;51.006;12.436;2024-03-02T00:16:03;28.20;;;15.10;;
5195;SDS011;2617;51.006;12.436;2024-03-02T00:21:06;28.03;;;15.27;;
5195;SDS011;2617;51.006;12.436;2024-03-02T00:26:11;33.60;;;15.57;;
5195;SDS011;2617;51.006;12.436;2024-03-02T00:31:12;24.60;;;15.73;;
5195;SDS011;2617;51.006;12.436;2024-03-02T00:36:15;30.90;;;16.27;;
5195;SDS011;2617;51.006;12.436;2024-03-02T00:41:21;28.40;;;15.85;;
5195;SDS011;2617;51.006;12.436;2024-03-02T00:46:24;29.30;;;15.95;;
5195;SDS011;2617;51.006;12.436;2024-03-02T00:51:27;29.47;;;15.73;;
5195;SDS011;2617;51.006;12.436;2024-03-02T00:56:29;27.60;;;15.03;;
5195;SDS011;2617;51.006;12.436;2024-03-02T01:01:31;31.80;;;15.63;;
5195;SDS011;2617;51.006;12.436;2024-03-02T01:06:34;30.00;;;15.53;;
5195;SDS011;2617;51.006;12.436;2024-03-02T01:11:37;29.80;;;16.83;;
5195;SDS011;2617;51.006;12.436;2024-03-02T01:16:40;31.13;;;16.60;;
5195;SDS011;2617;51.006;12.436;2024-03-02T01:21:42;29.50;;;15.50;;
5195;SDS011;2617;51.006;12.436;2024-03-02T01:26:45;28.00;;;15.90;;
5195;SDS011;2617;51.006;12.436;2024-03-02T01:31:47;23.93;;;14.50;;
5195;SDS011;2617;51.006;12.436;2024-03-02T01:36:50;31.87;;;17.90;;
5195;SDS011;2617;51.006;12.436;2024-03-02T01:41:52;24.97;;;14.97;;
5195;SDS011;2617;51.006;12.436;2024-03-02T01:46:55;26.90;;;14.27;;
5195;SDS011;2617;51.006;12.436;2024-03-02T01:51:57;27.40;;;14.30;;
5195;SDS011;2617;51.006;12.436;2024-03-02T01:57:00;33.03;;;15.97;;
5195;SDS011;2617;51.006;12.436;2024-03-02T02:02:03;29.87;;;17.17;;
5195;SDS011;2617;51.006;12.436;2024-03-02T02:07:05;32.63;;;17.53;;
5195;SDS011;2617;51.006;12.436;2024-03-02T02:12:09;33.97;;;18.30;;
5195;SDS011;2617;51.006;12.436;2024-03-02T02:17:12;34.20;;;16.70;;
5195;SDS011;2617;51.006;12.436;2024-03-02T02:22:15;34.42;;;15.85;;
5195;SDS011;2617;51.006;12.436;2024-03-02T02:27:18;28.67;;;17.23;;
5195;SDS011;2617;51.006;12.436;2024-03-02T02:32:20;32.22;;;16.73;;
5195;SDS011;2617;51.006;12.436;2024-03-02T02:37:23;34.47;;;16.98;;
5195;SDS011;2617;51.006;12.436;2024-03-02T02:42:25;40.33;;;16.85;;
5195;SDS011;2617;51.006;12.436;2024-03-02T02:47:27;36.47;;;16.97;;
5195;SDS011;2617;51.006;12.436;2024-03-02T02:52:31;33.17;;;16.60;;
5195;SDS011;2617;51.006;12.436;2024-03-02T02:57:34;28.53;;;15.37;;
5195;SDS011;2617;51.006;12.436;2024-03-02T03:02:38;32.23;;;14.77;;
5195;SDS011;2617;51.006;12.436;2024-03-02T03:07:41;31.87;;;15.90;;
5195;SDS011;2617;51.006;12.436;2024-03-02T03:12:44;35.43;;;15.53;;
5195;SDS011;2617;51.006;12.436;2024-03-02T03:17:47;29.60;;;15.68;;
5195;SDS011;2617;51.006;12.436;2024-03-02T03:22:49;40.28;;;18.45;;
5195;SDS011;2617;51.006;12.436;2024-03-02T03:27:52;32.08;;;17.55;;
5195;SDS011;2617;51.006;12.436;2024-03-02T03:32:54;40.05;;;17.12;;
5195;SDS011;2617;51.006;12.436;2024-03-02T03:37:57;30.88;;;18.52;;
5195;SDS011;2617;51.006;12.436;2024-03-02T03:43:00;33.97;;;16.67;;
5195;SDS011;2617;51.006;12.436;2024-03-02T03:48:02;29.43;;;15.43;;
5195;SDS011;2617;51.006;12.436;2024-03-02T03:53:05;35.23;;;18.17;;
5195;SDS011;2617;51.006;12.436;2024-03-02T03:58:09;35.47;;;18.23;;
5195;SDS011;2617;51.006;12.436;2024-03-02T04:03:11;34.83;;;17.57;;
5195;SDS011;2617;51.006;12.436;2024-03-02T04:08:13;30.94;;;16.70;;
5195;SDS011;2617;51.006;12.436;2024-03-02T04:13:16;32.90;;;17.90;;
5195;SDS011;2617;51.006;12.436;2024-03-02T04:18:19;33.28;;;17.50;;
5195;SDS011;2617;51.006;12.436;2024-03-02T04:23:21;32.15;;;17.12;;
5195;SDS011;2617;51.006;12.436;2024-03-02T04:28:24;36.60;;;17.90;;
5195;SDS011;2617;51.006;12.436;2024-03-02T04:33:26;32.43;;;16.87;;
5195;SDS011;2617;51.006;12.436;2024-03-02T04:38:29;37.77;;;18.63;;
5195;SDS011;2617;51.006;12.436;2024-03-02T04:43:31;37.93;;;17.80;;
5195;SDS011;2617;51.006;12.436;2024-03-02T04:48:34;39.40;;;19.00;;
5195;SDS011;2617;51.006;12.436;2024-03-02T04:53:36;36.83;;;18.73;;
5195;SDS011;2617;51.006;12.436;2024-03-02T04:58:39;37.22;;;17.95;;
5195;SDS011;2617;51.006;12.436;2024-03-02T05:03:42;33.00;;;16.47;;
5195;SDS011;2617;51.006;12.436;2024-03-02T05:08:44;33.80;;;15.40;;
5195;SDS011;2617;51.006;12.436;2024-03-02T05:13:47;35.27;;;16.87;;
5195;SDS011;2617;51.006;12.436;2024-03-02T05:18:49;32.42;;;16.17;;
5195;SDS011;2617;51.006;12.436;2024-03-02T05:23:51;33.40;;;17.23;;
5195;SDS011;2617;51.006;12.436;2024-03-02T05:28:55;26.33;;;15.70;;
5195;SDS011;2617;51.006;12.436;2024-03-02T05:33:57;31.80;;;16.33;;
5195;SDS011;2617;51.006;12.436;2024-03-02T05:39:00;28.13;;;15.90;;
5195;SDS011;2617;51.006;12.436;2024-03-02T05:44:03;35.33;;;16.70;;
5195;SDS011;2617;51.006;12.436;2024-03-02T05:49:05;35.70;;;16.83;;
5195;SDS011;2617;51.006;12.436;2024-03-02T05:54:08;30.03;;;15.30;;
5195;SDS011;2617;51.006;12.436;2024-03-02T05:59:11;31.80;;;16.90;;
5195;SDS011;2617;51.006;12.436;2024-03-02T06:04:13;31.97;;;16.70;;
5195;SDS011;2617;51.006;12.436;2024-03-02T06:09:16;27.40;;;16.17;;
5195;SDS011;2617;51.006;12.436;2024-03-02T06:14:18;39.20;;;15.77;;
5195;SDS011;2617;51.006;12.436;2024-03-02T06:19:21;27.87;;;14.73;;
5195;SDS011;2617;51.006;12.436;2024-03-02T06:24:23;26.37;;;14.97;;
5195;SDS011;2617;51.006;12.436;2024-03-02T06:29:26;29.50;;;15.07;;
5195;SDS011;2617;51.006;12.436;2024-03-02T06:34:28;27.40;;;16.50;;
5195;SDS011;2617;51.006;12.436;2024-03-02T06:39:31;28.20;;;15.73;;
5195;SDS011;2617;51.006;12.436;2024-03-02T06:44:33;33.27;;;16.83;;
5195;SDS011;2617;51.006;12.436;2024-03-02T06:49:36;29.40;;;14.90;;
5195;SDS011;2617;51.006;12.436;2024-03-02T06:54:38;28.03;;;15.90;;
5195;SDS011;2617;51.006;12.436;2024-03-02T06:59:41;33.85;;;16.90;;
5195;SDS011;2617;51.006;12.436;2024-03-02T07:04:44;35.43;;;18.37;;
5195;SDS011;2617;51.006;12.436;2024-03-02T07:09:47;30.30;;;16.83;;
5195;SDS011;2617;51.006;12.436;2024-03-02T07:14:49;28.17;;;16.33;;
5195;SDS011;2617;51.006;12.436;2024-03-02T07:19:57;25.30;;;14.32;;
5195;SDS011;2617;51.006;12.436;2024-03-02T07:24:59;30.80;;;15.47;;
5195;SDS011;2617;51.006;12.436;2024-03-02T07:30:02;24.47;;;14.40;;
5195;SDS011;2617;51.006;12.436;2024-03-02T07:35:05;32.63;;;15.40;;
5195;SDS011;2617;51.006;12.436;2024-03-02T07:40:09;34.40;;;18.13;;
5195;SDS011;2617;51.006;12.436;2024-03-02T07:45:13;28.95;;;16.85;;
5195;SDS011;2617;51.006;12.436;2024-03-02T07:50:15;67.63;;;35.40;;
5195;SDS011;2617;51.006;12.436;2024-03-02T07:55:18;28.75;;;15.73;;
5195;SDS011;2617;51.006;12.436;2024-03-02T08:00:22;25.30;;;14.20;;
5195;SDS011;2617;51.006;12.436;2024-03-02T08:05:24;26.40;;;15.20;;
5195;SDS011;2617;51.006;12.436;2024-03-02T08:10:27;25.73;;;15.23;;
5195;SDS011;2617;51.006;12.436;2024-03-02T08:15:29;23.80;;;12.80;;
5195;SDS011;2617;51.006;12.436;2024-03-02T08:20:31;24.47;;;15.33;;
5195;SDS011;2617;51.006;12.436;2024-03-02T08:25:34;24.53;;;13.50;;
5195;SDS011;2617;51.006;12.436;2024-03-02T08:30:37;21.30;;;11.37;;
5195;SDS011;2617;51.006;12.436;2024-03-02T08:35:39;22.43;;;12.70;;
5195;SDS011;2617;51.006;12.436;2024-03-02T08:40:42;24.27;;;13.70;;
5195;SDS011;2617;51.006;12.436;2024-03-02T08:45:44;20.70;;;12.50;;
5195;SDS011;2617;51.006;12.436;2024-03-02T08:50:47;20.77;;;11.80;;
5195;SDS011;2617;51.006;12.436;2024-03-02T08:55:49;23.43;;;12.03;;
5195;SDS011;2617;51.006;12.436;2024-03-02T09:00:52;22.87;;;13.18;;
5195;SDS011;2617;51.006;12.436;2024-03-02T09:05:55;18.08;;;11.38;;
5195;SDS011;2617;51.006;12.436;2024-03-02T09:10:57;19.30;;;11.30;;
5195;SDS011;2617;51.006;12.436;2024-03-02T09:16:00;21.48;;;10.68;;
5195;SDS011;2617;51.006;12.436;2024-03-02T09:21:02;20.52;;;11.30;;
5195;SDS011;2617;51.006;12.436;2024-03-02T09:26:05;20.33;;;11.27;;
5195;SDS011;2617;51.006;12.436;2024-03-02T09:31:08;17.10;;;10.87;;
5195;SDS011;2617;51.006;12.436;2024-03-02T09:41:19;17.50;;;10.18;;
5195;SDS011;2617;51.006;12.436;2024-03-02T09:46:22;21.10;;;11.20;;
5195;SDS011;2617;51.006;12.436;2024-03-02T09:51:24;14.38;;;9.40;;
5195;SDS011;2617;51.006;12.436;2024-03-02T09:56:27;21.57;;;10.40;;
5195;SDS011;2617;51.006;12.436;2024-03-02T10:01:29;19.30;;;9.93;;
5195;SDS011;2617;51.006;12.436;2024-03-02T10:06:32;20.70;;;9.40;;
5195;SDS011;2617;51.006;12.436;2024-03-02T10:11:35;12.83;;;9.03;;
5195;SDS011;2617;51.006;12.436;2024-03-02T10:16:38;17.13;;;9.33;;
5195;SDS011;2617;51.006;12.436;2024-03-02T10:21:40;17.93;;;8.47;;
5195;SDS011;2617;51.006;12.436;2024-03-02T10:26:42;13.30;;;8.87;;
5195;SDS011;2617;51.006;12.436;2024-03-02T10:31:46;12.82;;;7.82;;
5195;SDS011;2617;51.006;12.436;2024-03-02T10:36:48;12.90;;;7.37;;
5195;SDS011;2617;51.006;12.436;2024-03-02T10:41:51;13.07;;;8.63;;
5195;SDS011;2617;51.006;12.436;2024-03-02T10:46:54;17.83;;;7.97;;
5195;SDS011;2617;51.006;12.436;2024-03-02T10:51:57;12.00;;;7.03;;
5195;SDS011;2617;51.006;12.436;2024-03-02T10:56:59;9.68;;;7.12;;
5195;SDS011;2617;51.006;12.436;2024-03-02T11:02:03;12.37;;;8.60;;
5195;SDS011;2617;51.006;12.436;2024-03-02T11:07:06;13.83;;;7.70;;
5195;SDS011;2617;51.006;12.436;2024-03-02T11:12:11;11.73;;;6.97;;
5195;SDS011;2617;51.006;12.436;2024-03-02T11:17:16;11.00;;;7.90;;
5195;SDS011;2617;51.006;12.436;2024-03-02T11:22:18;12.23;;;7.73;;
5195;SDS011;2617;51.006;12.436;2024-03-02T11:32:41;10.07;;;7.40;;
5195;SDS011;2617;51.006;12.436;2024-03-02T11:37:44;8.00;;;5.80;;
5195;SDS011;2617;51.006;12.436;2024-03-02T11:42:47;6.40;;;5.60;;
5195;SDS011;2617;51.006;12.436;2024-03-02T11:47:50;11.40;;;6.90;;
5195;SDS011;2617;51.006;12.436;2024-03-02T11:52:53;10.13;;;5.43;;
5195;SDS011;2617;51.006;12.436;2024-03-02T11:57:57;7.37;;;5.90;;
5195;SDS011;2617;51.006;12.436;2024-03-02T12:03:01;8.15;;;6.10;;
5195;SDS011;2617;51.006;12.436;2024-03-02T12:13:40;10.27;;;7.00;;
5195;SDS011;2617;51.006;12.436;2024-03-02T12:18:42;9.00;;;6.83;;
5195;SDS011;2617;51.006;12.436;2024-03-02T12:23:45;16.57;;;7.53;;
5195;SDS011;2617;51.006;12.436;2024-03-02T12:28:48;10.17;;;6.50;;
5195;SDS011;2617;51.006;12.436;2024-03-02T12:33:50;9.70;;;6.10;;
5195;SDS011;2617;51.006;12.436;2024-03-02T12:38:53;6.75;;;4.82;;
5195;SDS011;2617;51.006;12.436;2024-03-02T12:43:55;5.47;;;4.97;;
5195;SDS011;2617;51.006;12.436;2024-03-02T12:48:58;7.83;;;5.60;;
5195;SDS011;2617;51.006;12.436;2024-03-02T12:54:02;4.43;;;3.93;;
5195;SDS011;2617;51.006;12.436;2024-03-02T12:59:05;6.57;;;4.93;;
5195;SDS011;2617;51.006;12.436;2024-03-02T13:04:07;5.90;;;4.37;;
5195;SDS011;2617;51.006;12.436;2024-03-02T13:09:09;5.17;;;4.03;;
5195;SDS011;2617;51.006;12.436;2024-03-02T13:14:12;6.40;;;3.57;;
5195;SDS011;2617;51.006;12.436;2024-03-02T13:19:14;4.20;;;3.60;;
5195;SDS011;2617;51.006;12.436;2024-03-02T13:24:18;5.40;;;3.90;;
5195;SDS011;2617;51.006;12.436;2024-03-02T13:29:21;9.70;;;5.00;;
5195;SDS011;2617;51.006;12.436;2024-03-02T13:34:24;2.80;;;2.40;;
5195;SDS011;2617;51.006;12.436;2024-03-02T13:39:27;3.20;;;2.90;;
5195;SDS011;2617;51.006;12.436;2024-03-02T13:44:30;4.50;;;2.40;;
5195;SDS011;2617;51.006;12.436;2024-03-02T13:49:32;2.75;;;2.45;;
5195;SDS011;2617;51.006;12.436;2024-03-02T13:54:36;3.78;;;2.92;;
5195;SDS011;2617;51.006;12.436;2024-03-02T13:59:41;4.47;;;3.20;;
5195;SDS011;2617;51.006;12.436;2024-03-02T14:04:43;3.20;;;2.90;;
5195;SDS011;2617;51.006;12.436;2024-03-02T14:09:46;3.70;;;3.10;;
5195;SDS011;2617;51.006;12.436;2024-03-02T14:14:50;5.20;;;3.00;;
5195;SDS011;2617;51.006;12.436;2024-03-02T14:19:53;4.27;;;3.47;;
5195;SDS011;2617;51.006;12.436;2024-03-02T14:24:56;4.32;;;2.92;;
5195;SDS011;2617;51.006;12.436;2024-03-02T14:29:59;4.53;;;3.07;;
5195;SDS011;2617;51.006;12.436;2024-03-02T14:35:02;8.30;;;3.30;;
5195;SDS011;2617;51.006;12.436;2024-03-02T14:40:04;6.28;;;3.10;;
5195;SDS011;2617;51.006;12.436;2024-03-02T14:45:08;4.27;;;2.43;;
5195;SDS011;2617;51.006;12.436;2024-03-02T14:50:12;6.80;;;3.47;;
5195;SDS011;2617;51.006;12.436;2024-03-02T14:55:14;6.53;;;3.13;;
5195;SDS011;2617;51.006;12.436;2024-03-02T15:00:17;4.30;;;3.70;;
5195;SDS011;2617;51.006;12.436;2024-03-02T15:05:20;4.07;;;3.53;;
5195;SDS011;2617;51.006;12.436;2024-03-02T15:10:23;4.47;;;3.37;;
5195;SDS011;2617;51.006;12.436;2024-03-02T15:15:25;6.90;;;4.50;;
5195;SDS011;2617;51.006;12.436;2024-03-02T15:20:27;11.23;;;4.50;;
5195;SDS011;2617;51.006;12.436;2024-03-02T15:25:30;13.30;;;4.43;;
5195;SDS011;2617;51.006;12.436;2024-03-02T15:30:33;6.28;;;4.15;;
5195;SDS011;2617;51.006;12.436;2024-03-02T15:35:35;9.10;;;3.87;;
5195;SDS011;2617;51.006;12.436;2024-03-02T15:40:38;9.02;;;5.93;;
5195;SDS011;2617;51.006;12.436;2024-03-02T15:45:41;9.80;;;4.50;;
5195;SDS011;2617;51.006;12.436;2024-03-02T15:50:43;8.97;;;4.40;;
5195;SDS011;2617;51.006;12.436;2024-03-02T15:55:46;10.73;;;5.07;;
5195;SDS011;2617;51.006;12.436;2024-03-02T16:00:49;10.13;;;4.80;;
5195;SDS011;2617;51.006;12.436;2024-03-02T16:05:52;9.67;;;5.80;;
5195;SDS011;2617;51.006;12.436;2024-03-02T16:10:55;10.83;;;5.60;;
5195;SDS011;2617;51.006;12.436;2024-03-02T16:15:57;12.75;;;5.53;;
5195;SDS011;2617;51.006;12.436;2024-03-02T16:21:00;12.20;;;5.90;;
5195;SDS011;2617;51.006;12.436;2024-03-02T16:26:03;8.33;;;5.70;;
5195;SDS011;2617;51.006;12.436;2024-03-02T16:31:05;12.27;;;7.37;;
5195;SDS011;2617;51.006;12.436;2024-03-02T16:36:09;12.48;;;8.07;;
5195;SDS011;2617;51.006;12.436;2024-03-02T16:41:13;14.47;;;9.07;;
5195;SDS011;2617;51.006;12.436;2024-03-02T16:46:16;15.27;;;10.10;;
5195;SDS011;2617;51.006;12.436;2024-03-02T16:51:20;17.12;;;11.00;;
5195;SDS011;2617;51.006;12.436;2024-03-02T16:56:22;19.12;;;11.63;;
5195;SDS011;2617;51.006;12.436;2024-03-02T17:01:25;21.97;;;12.43;;
5195;SDS011;2617;51.006;12.436;2024-03-02T17:06:28;20.70;;;12.33;;
5195;SDS011;2617;51.006;12.436;2024-03-02T17:11:31;15.18;;;10.00;;
5195;SDS011;2617;51.006;12.436;2024-03-02T17:16:34;20.33;;;11.83;;
5195;SDS011;2617;51.006;12.436;2024-03-02T17:21:36;21.73;;;10.55;;
5195;SDS011;2617;51.006;12.436;2024-03-02T17:26:39;17.30;;;11.90;;
5195;SDS011;2617;51.006;12.436;2024-03-02T17:31:41;22.87;;;9.67;;
5195;SDS011;2617;51.006;12.436;2024-03-02T17:36:44;20.00;;;11.50;;
5195;SDS011;2617;51.006;12.436;2024-03-02T17:41:46;20.83;;;13.50;;
5195;SDS011;2617;51.006;12.436;2024-03-02T17:46:49;19.87;;;11.33;;
5195;SDS011;2617;51.006;12.436;2024-03-02T17:51:51;23.42;;;12.23;;
5195;SDS011;2617;51.006;12.436;2024-03-02T17:56:54;25.30;;;13.80;;
5195;SDS011;2617;51.006;12.436;2024-03-02T18:01:57;23.10;;;14.40;;
5195;SDS011;2617;51.006;12.436;2024-03-02T18:06:59;17.93;;;11.60;;
5195;SDS011;2617;51.006;12.436;2024-03-02T18:12:02;36.13;;;18.75;;
5195;SDS011;2617;51.006;12.436;2024-03-02T18:17:04;22.10;;;11.00;;
5195;SDS011;2617;51.006;12.436;2024-03-02T18:22:07;18.50;;;12.43;;
5195;SDS011;2617;51.006;12.436;2024-03-02T18:27:11;19.00;;;10.40;;
5195;SDS011;2617;51.006;12.436;2024-03-02T18:32:14;17.63;;;10.30;;
5195;SDS011;2617;51.006;12.436;2024-03-02T18:37:16;16.10;;;10.00;;
5195;SDS011;2617;51.006;12.436;2024-03-02T18:42:18;21.60;;;9.97;;
5195;SDS011;2617;51.006;12.436;2024-03-02T18:47:21;22.10;;;14.70;;
5195;SDS011;2617;51.006;12.436;2024-03-02T18:52:24;15.45;;;11.10;;
5195;SDS011;2617;51.006;12.436;2024-03-02T18:57:27;17.00;;;10.30;;
5195;SDS011;2617;51.006;12.436;2024-03-02T19:02:29;21.54;;;10.78;;
5195;SDS011;2617;51.006;12.436;2024-03-02T19:07:32;16.05;;;9.70;;
5195;SDS011;2617;51.006;12.436;2024-03-02T19:12:34;20.47;;;11.07;;
5195;SDS011;2617;51.006;12.436;2024-03-02T19:17:36;15.90;;;11.43;;
5195;SDS011;2617;51.006;12.436;2024-03-02T19:22:40;21.10;;;10.73;;
5195;SDS011;2617;51.006;12.436;2024-03-02T19:27:42;19.67;;;10.60;;
5195;SDS011;2617;51.006;12.436;2024-03-02T19:32:45;20.23;;;11.20;;
5195;SDS011;2617;51.006;12.436;2024-03-02T19:37:47;21.03;;;11.83;;
5195;SDS011;2617;51.006;12.436;2024-03-02T19:42:49;18.60;;;10.90;;
5195;SDS011;2617;51.006;12.436;2024-03-02T19:47:52;20.77;;;12.90;;
5195;SDS011;2617;51.006;12.436;2024-03-02T19:52:56;19.58;;;11.60;;
5195;SDS011;2617;51.006;12.436;2024-03-02T19:57:59;23.10;;;12.00;;
5195;SDS011;2617;51.006;12.436;2024-03-02T20:03:01;17.83;;;12.27;;
5195;SDS011;2617;51.006;12.436;2024-03-02T20:08:04;22.45;;;12.95;;
5195;SDS011;2617;51.006;12.436;2024-03-02T20:13:08;20.07;;;12.57;;
5195;SDS011;2617;51.006;12.436;2024-03-02T20:18:10;37.20;;;16.93;;
5195;SDS011;2617;51.006;12.436;2024-03-02T20:23:14;20.93;;;12.30;;
5195;SDS011;2617;51.006;12.436;2024-03-02T20:28:16;31.80;;;14.90;;
5195;SDS011;2617;51.006;12.436;2024-03-02T20:33:18;23.97;;;13.60;;
5195;SDS011;2617;51.006;12.436;2024-03-02T20:38:21;22.37;;;14.37;;
5195;SDS011;2617;51.006;12.436;2024-03-02T20:43:23;23.07;;;13.30;;
5195;SDS011;2617;51.006;12.436;2024-03-02T20:48:26;24.35;;;12.23;;
5195;SDS011;2617;51.006;12.436;2024-03-02T20:53:29;21.83;;;12.90;;
5195;SDS011;2617;51.006;12.436;2024-03-02T20:58:32;22.17;;;13.35;;
5195;SDS011;2617;51.006;12.436;2024-03-02T21:03:34;20.40;;;13.20;;
5195;SDS011;2617;51.006;12.436;2024-03-02T21:08:38;25.23;;;13.50;;
5195;SDS011;2617;51.006;12.436;2024-03-02T21:13:41;23.17;;;14.27;;
5195;SDS011;2617;51.006;12.436;2024-03-02T21:18:43;25.03;;;12.77;;
5195;SDS011;2617;51.006;12.436;2024-03-02T21:23:46;24.47;;;14.47;;
5195;SDS011;2617;51.006;12.436;2024-03-02T21:28:48;25.33;;;14.03;;
5195;SDS011;2617;51.006;12.436;2024-03-02T21:33:51;24.80;;;14.67;;
5195;SDS011;2617;51.006;12.436;2024-03-02T21:38:54;29.03;;;14.70;;
5195;SDS011;2617;51.006;12.436;2024-03-02T21:43:57;25.40;;;14.60;;
5195;SDS011;2617;51.006;12.436;2024-03-02T21:49:00;23.43;;;13.20;;
5195;SDS011;2617;51.006;12.436;2024-03-02T21:54:02;23.40;;;13.17;;
5195;SDS011;2617;51.006;12.436;2024-03-02T21:59:06;26.40;;;14.10;;
5195;SDS011;2617;51.006;12.436;2024-03-02T22:04:09;25.75;;;14.20;;
5195;SDS011;2617;51.006;12.436;2024-03-02T22:09:11;20.37;;;13.70;;
5195;SDS011;2617;51.006;12.436;2024-03-02T22:14:16;20.27;;;13.87;;
5195;SDS011;2617;51.006;12.436;2024-03-02T22:19:19;30.12;;;16.05;;
5195;SDS011;2617;51.006;12.436;2024-03-02T22:24:22;28.20;;;14.33;;
5195;SDS011;2617;51.006;12.436;2024-03-02T22:29:24;26.30;;;14.40;;
5195;SDS011;2617;51.006;12.436;2024-03-02T22:34:28;25.20;;;14.65;;
5195;SDS011;2617;51.006;12.436;2024-03-02T22:39:31;29.10;;;15.87;;
5195;SDS011;2617;51.006;12.436;2024-03-02T22:44:34;31.58;;;15.60;;
5195;SDS011;2617;51.006;12.436;2024-03-02T22:49:38;28.30;;;16.40;;
5195;SDS011;2617;51.006;12.436;2024-03-02T22:54:40;24.30;;;16.10;;
5195;SDS011;2617;51.006;12.436;2024-03-02T22:59:43;26.93;;;15.47;;
5195;SDS011;2617;51.006;12.436;2024-03-02T23:04:52;25.83;;;14.60;;
5195;SDS011;2617;51.006;12.436;2024-03-02T23:09:55;26.97;;;15.30;;
5195;SDS011;2617;51.006;12.436;2024-03-02T23:14:59;28.10;;;15.88;;
5195;SDS011;2617;51.006;12.436;2024-03-02T23:20:01;30.90;;;15.97;;
5195;SDS011;2617;51.006;12.436;2024-03-02T23:25:04;28.03;;;15.77;;
5195;SDS011;2617;51.006;12.436;2024-03-02T23:30:07;31.30;;;16.23;;
5195;SDS011;2617;51.006;12.436;2024-03-02T23:35:10;29.60;;;16.33;;
5195;SDS011;2617;51.006;12.436;2024-03-02T23:40:13;32.78;;;15.98;;
5195;SDS011;2617;51.006;12.436;2024-03-02T23:45:18;29.00;;;16.93;;
5195;SDS011;2617;51.006;12.436;2024-03-02T23:50:21;25.17;;;16.50;;
5195;SDS011;2617;51.006;12.436;2024-03-02T23:55:23;24.30;;;15.75;;
